Arcadia, Missouri
Current Conditions -  °F | °C
As of 8:15 AM on Thursday 29 Jan 2015 (Local Time) from KFAM Reporting Station
Overcast Overcast  
Wind Chill:   Ceiling: 2500
Heat Index:   Visibility: 10mi
Dew Point:   Wind: 14mph
Humidity: 66%   Direction: 310°NW
Pressure: 30.05"   Gusts: 20mph
Location:  37.59°N, 90.63°W
Report Text: KFAM 291415Z AUTO 31012G17KT 10SM OVC025 07/01 A3005 RMK AO1
Loading
Personal Weather Stations






























Interactive Weather Map New forecast layout! Learn more

10-Day Weather Forecast

Advertisements
Track Severe Weather on mobile